Terminal Aerodrome Forecast
Issued by NWS

Home | Current Version | Previous Version | Text Only | Print | Product List | Glossary On
Versions: 1 2 3 4 5 6 7 8 9 10 11 12 13 14 15 16 17 18 19 20 21 22 23 24 25 26 27 28
000
FTUS44 KMOB 252320
TAFBFM
TAF
KBFM 252320Z 2600/2624 VRB03KT P6SM VCTS FEW026CB FEW040 SCT080
     FM260200 06005KT P6SM SCT030 BKN150
     FM261700 13006KT P6SM SCT040 SCT250 PROB30 2618/2624 VRB15G25KT
      4SM TSRA BKN025CB=

USA.gov is the U.S. government's official web portal to all federal, state and local government web resources and services.